This is the latest recevied weather packets stored in our database for station/object DC1NF-7. If no packets are shown the sender has not sent any weather packets the latest 10 day(s).
| Time | Temp. | Humidity | Pressure | Rain* | Wind** | Luminosity | Snow |
|---|---|---|---|---|---|---|---|
| 1777751738 | 16.67° C | 53% | 1017.5 hPa | 0 mm | - | 0 W/m² | - |
| 1777751134 | 17.22° C | 50% | 1017.4 hPa | 0 mm | - | 0 W/m² | - |
| 1777750534 | 17.78° C | 49% | 1017.4 hPa | 0 mm | - | 0 W/m² | - |
| 1777749926 | 17.78° C | 50% | 1017.3 hPa | 0 mm | - | 0 W/m² | - |
| 1777749322 | 18.33° C | 48% | 1017.3 hPa | 0 mm | - | 0 W/m² | - |
| 1777748721 | 18.33° C | 49% | 1017.2 hPa | 0 mm | - | 0 W/m² | - |
| 1777748118 | 19.44° C | 46% | 1017.2 hPa | 0 mm | - | 0 W/m² | - |
| 1777747580 | 20° C | 47% | 1017.1 hPa | 0 mm | - | 2 W/m² | - |
| 1777746972 | 21.11° C | 42% | 1017 hPa | 0 mm | - | 4 W/m² | - |
| 1777746364 | 21.67° C | 40% | 1017 hPa | 0 mm | - | 8 W/m² | - |
| 1777745760 | 23.33° C | 35% | 1017 hPa | 0 mm | - | 15 W/m² | - |
| 1777745158 | 24.44° C | 30% | 1016.9 hPa | 0 mm | - | 24 W/m² | - |
| 1777744555 | 25° C | 28% | 1016.9 hPa | 0 mm | - | 37 W/m² | - |
| 1777743948 | 25° C | 28% | 1016.9 hPa | 0 mm | - | 50 W/m² | - |
| 1777743347 | 25.56° C | 28% | 1017 hPa | 0 mm | - | 66 W/m² | - |
| 1777742740 | 25.56° C | 27% | 1017 hPa | 0 mm | - | 88 W/m² | - |
| 1777742137 | 25.56° C | 27% | 1017.1 hPa | 0 mm | - | 113 W/m² | - |
| 1777741537 | 25.56° C | 27% | 1017.2 hPa | 0 mm | - | 133 W/m² | - |
| 1777740929 | 25.56° C | 27% | 1017.2 hPa | 0 mm | - | 140 W/m² | - |
| 1777740328 | 26.11° C | 27% | 1017.4 hPa | 0 mm | - | 155 W/m² | - |
| 1777739722 | 26.67° C | 25% | 1017.5 hPa | 0 mm | - | 154 W/m² | - |
| 1777739118 | 26.67° C | 24% | 1017.6 hPa | 0 mm | - | 165 W/m² | - |
| 1777738515 | 26.11° C | 25% | 1017.8 hPa | 0 mm | - | 171 W/m² | - |
| 1777737972 | 26.67° C | 24% | 1017.8 hPa | 0 mm | - | 182 W/m² | - |
| 1777737372 | 27.78° C | 23% | 1017.8 hPa | 0 mm | - | 210 W/m² | - |
* Rain latest hour (hover to see other rain measurements)
** Current wind speed in m/s (hover to see current wind gust speed)